Time;durP1;ratioP1;P1;durP2;ratioP2;P2;SDS_P1;SDS_P2;PMS_P1;PMS_P2;Temp;Humidity;BMP_temperature;BMP_pressure;BME280_temperature;BME280_humidity;BME280_pressure;Samples;Min_cycle;Max_cycle;Signal;HPM_P1;HPM_P2
2022/04/29 00:02:01;;;;;;;3.78;3.13;;;10.80;51.90;;;;;;5085642;28;20078;-71
2022/04/29 00:04:27;;;;;;;5.32;3.10;;;10.80;51.90;;;;;;5074871;28;20032;-71
2022/04/29 00:06:53;;;;;;;4.78;3.20;;;10.70;51.90;;;;;;5074753;28;20111;-71
2022/04/29 00:09:19;;;;;;;5.72;3.20;;;10.70;52.10;;;;;;5074838;28;20103;-70
2022/04/29 00:11:46;;;;;;;5.13;3.05;;;10.70;52.20;;;;;;5090748;28;20031;-71
2022/04/29 00:14:12;;;;;;;5.03;3.17;;;10.60;52.20;;;;;;5094911;28;20016;-70
2022/04/29 00:16:37;;;;;;;4.38;3.53;;;10.60;52.20;;;;;;5086540;28;20537;-71
2022/04/29 00:19:03;;;;;;;4.45;2.92;;;10.60;52.30;;;;;;5075453;28;20024;-71
2022/04/29 00:21:29;;;;;;;5.18;2.70;;;10.50;52.20;;;;;;5078376;28;20512;-75
2022/04/29 00:23:56;;;;;;;4.25;3.03;;;10.50;52.30;;;;;;5094820;28;20385;-70
2022/04/29 00:26:21;;;;;;;4.53;2.85;;;10.50;52.50;;;;;;5094475;28;20027;-70
2022/04/29 00:28:48;;;;;;;3.85;3.03;;;10.40;52.30;;;;;;5092132;28;20020;-70
2022/04/29 00:31:13;;;;;;;8.50;3.17;;;10.40;52.30;;;;;;5093123;28;20020;-70
2022/04/29 00:33:40;;;;;;;4.60;3.22;;;10.40;52.40;;;;;;5088907;28;20382;-70
2022/04/29 00:36:06;;;;;;;4.07;3.20;;;10.40;52.70;;;;;;5074265;28;20031;-70
2022/04/29 00:38:32;;;;;;;7.45;3.55;;;10.30;52.70;;;;;;5074182;28;20021;-70
2022/04/29 00:40:58;;;;;;;4.00;3.00;;;10.30;52.90;;;;;;5090000;28;20462;-70
2022/04/29 00:43:23;;;;;;;4.70;3.38;;;10.30;53.10;;;;;;5078213;28;20032;-70
2022/04/29 00:45:50;;;;;;;4.88;3.30;;;10.30;53.10;;;;;;5074001;28;20099;-70
2022/04/29 00:48:17;;;;;;;4.88;3.00;;;10.20;53.10;;;;;;5074025;28;20063;-70
2022/04/29 00:50:43;;;;;;;4.28;3.28;;;10.20;53.30;;;;;;5093301;28;20059;-71
2022/04/29 00:53:12;;;;;;;6.38;3.28;;;10.20;53.20;;;;;;5094080;28;20046;-71
2022/04/29 00:55:39;;;;;;;5.32;3.40;;;10.10;53.20;;;;;;5078286;28;20031;-72
2022/04/29 00:58:11;;;;;;;5.68;3.63;;;10.10;53.40;;;;;;5088539;28;20115;-70
2022/04/29 01:00:38;;;;;;;4.40;3.17;;;10.10;53.30;;;;;;5091026;28;20048;-70
2022/04/29 01:03:04;;;;;;;3.65;2.92;;;10.10;53.30;;;;;;5073590;28;20044;-70
2022/04/29 01:05:33;;;;;;;3.95;3.28;;;10.10;53.40;;;;;;5077275;28;20384;-70
2022/04/29 01:07:59;;;;;;;5.05;3.38;;;10.00;53.40;;;;;;5087863;28;20020;-71
2022/04/29 01:10:24;;;;;;;7.00;3.75;;;10.00;53.50;;;;;;5092925;28;20094;-70
2022/04/29 01:12:54;;;;;;;4.93;3.55;;;10.00;53.90;;;;;;5073748;28;20020;-71
2022/04/29 01:15:20;;;;;;;10.63;3.78;;;10.00;54.00;;;;;;5072329;28;20378;-70
2022/04/29 01:17:48;;;;;;;5.05;3.70;;;10.00;53.90;;;;;;5073637;28;20024;-71
2022/04/29 01:20:16;;;;;;;4.50;3.42;;;10.00;53.90;;;;;;5072287;28;20099;-70
2022/04/29 01:22:43;;;;;;;5.03;3.70;;;9.90;54.00;;;;;;5075437;28;20040;-71
2022/04/29 01:25:11;;;;;;;4.95;3.15;;;9.90;54.00;;;;;;5093687;28;20046;-71
2022/04/29 01:27:37;;;;;;;3.88;3.33;;;9.90;54.00;;;;;;5092446;28;20043;-70
2022/04/29 01:30:16;;;;;;;4.55;3.22;;;9.90;54.10;;;;;;5093725;28;20024;-71
2022/04/29 01:32:42;;;;;;;9.65;3.85;;;9.80;54.30;;;;;;5093707;28;20050;-71
2022/04/29 01:35:11;;;;;;;4.43;3.15;;;9.80;54.30;;;;;;5092358;28;20059;-71
2022/04/29 01:37:37;;;;;;;9.35;3.47;;;9.80;54.40;;;;;;5093614;28;20055;-70
2022/04/29 01:40:04;;;;;;;5.32;3.70;;;9.80;54.40;;;;;;5092263;28;20499;-70
2022/04/29 01:42:30;;;;;;;4.55;3.30;;;9.80;54.50;;;;;;5093499;28;20027;-71
2022/04/29 01:44:56;;;;;;;5.53;3.75;;;9.80;54.50;;;;;;5093431;28;20020;-71
2022/04/29 01:47:22;;;;;;;4.63;3.60;;;9.80;54.40;;;;;;5093375;28;20024;-71
2022/04/29 01:49:47;;;;;;;4.30;3.63;;;9.80;54.60;;;;;;5093472;28;20021;-71
2022/04/29 01:52:13;;;;;;;4.60;3.58;;;9.80;54.70;;;;;;5090070;28;20016;-71
2022/04/29 01:54:39;;;;;;;5.95;4.00;;;9.70;54.70;;;;;;5073075;28;20386;-71
2022/04/29 01:57:06;;;;;;;5.28;3.72;;;9.70;54.80;;;;;;5073046;28;20020;-71
2022/04/29 01:59:32;;;;;;;5.03;3.72;;;9.70;54.90;;;;;;5077315;28;20051;-71
2022/04/29 02:01:59;;;;;;;5.55;3.75;;;9.70;55.00;;;;;;5091983;28;20027;-72
2022/04/29 02:04:25;;;;;;;6.93;3.80;;;9.60;54.90;;;;;;5093207;28;20420;-71
2022/04/29 02:06:52;;;;;;;6.97;3.97;;;9.60;55.10;;;;;;5091799;28;20031;-72
2022/04/29 02:09:18;;;;;;;5.90;3.15;;;9.60;55.10;;;;;;5090907;28;20043;-72
2022/04/29 02:12:03;;;;;;;5.47;3.65;;;9.60;55.00;;;;;;5091991;28;20419;-71
2022/04/29 02:14:30;;;;;;;5.75;4.03;;;9.60;55.00;;;;;;5091698;28;20247;-71
2022/04/29 02:16:57;;;;;;;6.82;4.07;;;9.50;55.60;;;;;;5089725;28;20099;-71
2022/04/29 02:19:24;;;;;;;6.85;4.75;;;9.50;55.20;;;;;;5071128;28;20020;-71
2022/04/29 02:21:49;;;;;;;6.47;4.07;;;9.50;55.30;;;;;;5072824;28;20397;-72
2022/04/29 02:24:15;;;;;;;5.35;3.97;;;9.50;55.30;;;;;;5072828;28;20036;-72
2022/04/29 02:26:41;;;;;;;4.32;3.55;;;9.40;55.40;;;;;;5071322;28;20415;-69
2022/04/29 02:29:07;;;;;;;8.05;4.18;;;9.40;55.40;;;;;;5071640;28;20048;-72
2022/04/29 02:31:33;;;;;;;6.75;4.28;;;9.40;55.40;;;;;;5081506;28;20431;-71
2022/04/29 02:33:59;;;;;;;5.30;4.03;;;9.40;55.50;;;;;;5092919;28;20074;-72
2022/04/29 02:36:25;;;;;;;5.30;3.60;;;9.30;55.40;;;;;;5091608;28;20489;-71
2022/04/29 02:38:51;;;;;;;6.65;3.70;;;9.30;55.40;;;;;;5092640;28;20079;-72
2022/04/29 02:41:17;;;;;;;7.00;3.72;;;9.30;55.50;;;;;;5077701;28;20029;-72
2022/04/29 02:43:43;;;;;;;4.93;3.55;;;9.30;55.60;;;;;;5088829;28;20031;-71
2022/04/29 02:46:09;;;;;;;5.63;3.70;;;9.30;55.70;;;;;;5089936;28;20062;-71
2022/04/29 02:48:34;;;;;;;5.88;4.22;;;9.20;55.70;;;;;;5091511;28;20427;-71
2022/04/29 02:51:05;;;;;;;6.75;4.63;;;9.20;55.80;;;;;;5087821;28;20035;-71
2022/04/29 02:53:31;;;;;;;9.02;4.60;;;9.20;56.00;;;;;;5073006;28;20019;-71
2022/04/29 02:55:57;;;;;;;4.70;3.63;;;9.20;56.10;;;;;;5092228;28;20074;-72
2022/04/29 02:58:23;;;;;;;7.10;4.55;;;9.20;56.00;;;;;;5092405;28;20477;-71
2022/04/29 03:00:49;;;;;;;5.88;4.18;;;9.10;56.00;;;;;;5090533;28;20067;-72
2022/04/29 03:03:14;;;;;;;6.05;4.07;;;9.10;56.10;;;;;;5091322;28;20024;-72
2022/04/29 03:05:40;;;;;;;5.70;3.90;;;9.10;56.70;;;;;;5092532;28;20354;-71
2022/04/29 03:08:07;;;;;;;10.35;4.15;;;9.10;56.20;;;;;;5092537;28;20032;-71
2022/04/29 03:10:34;;;;;;;6.32;3.83;;;9.10;56.30;;;;;;5082969;28;20032;-71
2022/04/29 03:13:00;;;;;;;6.32;4.30;;;9.10;56.90;;;;;;5089285;28;20146;-71
2022/04/29 03:15:26;;;;;;;6.22;3.92;;;9.10;56.30;;;;;;5087585;28;20036;-71
2022/04/29 03:20:39;;;;;;;9.82;4.55;;;9.00;56.40;;;;;;5072646;28;20032;-71
2022/04/29 03:23:06;;;;;;;9.93;5.63;;;9.00;56.30;;;;;;5072239;28;20100;-71
2022/04/29 03:25:32;;;;;;;9.55;6.18;;;9.00;56.50;;;;;;5072209;28;20021;-71
2022/04/29 03:27:58;;;;;;;10.00;5.90;;;9.00;56.60;;;;;;5078588;28;20016;-71
2022/04/29 03:30:24;;;;;;;7.53;5.18;;;9.00;56.90;;;;;;5092477;28;20069;-71
2022/04/29 03:32:55;;;;;;;6.97;4.28;;;9.00;57.10;;;;;;5095339;28;20099;-71
2022/04/29 03:35:21;;;;;;;7.78;4.55;;;9.00;57.20;;;;;;5096047;28;20428;-71
2022/04/29 03:37:51;;;;;;;8.18;5.40;;;9.00;57.00;;;;;;5096060;28;20024;-71
2022/04/29 03:40:21;;;;;;;7.78;4.93;;;9.00;57.20;;;;;;5095723;28;20017;-71
2022/04/29 03:42:52;;;;;;;12.30;5.78;;;9.00;57.20;;;;;;5095756;28;20466;-72
2022/04/29 03:45:19;;;;;;;7.88;4.88;;;8.90;57.60;;;;;;5095660;28;20071;-71
2022/04/29 03:47:45;;;;;;;9.90;4.90;;;8.90;57.40;;;;;;5095660;28;20466;-71
2022/04/29 03:50:11;;;;;;;7.97;4.47;;;8.90;57.40;;;;;;5084602;28;20024;-72
2022/04/29 03:52:51;;;;;;;8.15;4.90;;;8.90;57.50;;;;;;5075159;28;20493;-72
2022/04/29 03:55:22;;;;;;;9.43;4.82;;;8.90;57.60;;;;;;5075282;28;20158;-72
2022/04/29 03:57:49;;;;;;;8.00;5.00;;;9.00;57.70;;;;;;5075249;28;20017;-71
2022/04/29 04:00:15;;;;;;;7.82;5.50;;;9.00;57.60;;;;;;5075057;28;20406;-72
2022/04/29 04:02:41;;;;;;;7.35;4.68;;;9.00;57.70;;;;;;5073864;28;20032;-71
2022/04/29 04:05:08;;;;;;;7.00;4.40;;;9.00;57.70;;;;;;5086799;28;20024;-71
2022/04/29 04:07:34;;;;;;;7.63;4.68;;;9.00;57.60;;;;;;5095250;28;20028;-71
2022/04/29 04:10:00;;;;;;;10.27;5.32;;;9.00;57.60;;;;;;5095163;28;20024;-72
2022/04/29 04:12:36;;;;;;;7.20;4.47;;;9.00;57.70;;;;;;5095125;28;20020;-71
2022/04/29 04:15:02;;;;;;;8.95;5.20;;;9.00;57.70;;;;;;5095162;28;20489;-72
2022/04/29 04:17:27;;;;;;;7.40;4.78;;;9.00;57.70;;;;;;5093829;28;20057;-71
2022/04/29 04:19:53;;;;;;;6.85;4.88;;;9.10;57.90;;;;;;5094998;28;20470;-71
2022/04/29 04:22:19;;;;;;;7.75;5.07;;;9.10;57.90;;;;;;5094881;28;20089;-71
2022/04/29 04:24:44;;;;;;;7.15;5.50;;;9.10;58.00;;;;;;5094915;28;20102;-71
2022/04/29 04:27:10;;;;;;;6.63;4.80;;;9.20;58.00;;;;;;5094793;28;20020;-72
2022/04/29 04:29:36;;;;;;;8.38;4.88;;;9.20;58.00;;;;;;5082154;28;20032;-71
2022/04/29 04:32:02;;;;;;;5.43;4.00;;;9.20;58.10;;;;;;5073550;28;20462;-72
2022/04/29 04:37:12;;;;;;;6.55;5.18;;;9.30;58.20;;;;;;5077767;28;20074;-69
2022/04/29 04:39:37;;;;;;;8.20;4.45;;;9.30;58.20;;;;;;5074418;28;20032;-71
2022/04/29 04:42:03;;;;;;;6.80;4.65;;;9.30;58.10;;;;;;5074333;28;20033;-71
2022/04/29 04:44:29;;;;;;;10.02;5.80;;;9.40;58.50;;;;;;5074345;28;20032;-71
2022/04/29 04:46:55;;;;;;;14.93;8.63;;;9.40;58.50;;;;;;5072818;28;20021;-72
2022/04/29 04:49:20;;;;;;;14.90;9.43;;;9.50;58.50;;;;;;5074242;28;20028;-72
2022/04/29 04:51:46;;;;;;;14.45;9.23;;;9.50;58.40;;;;;;5073164;28;20100;-71
2022/04/29 04:54:12;;;;;;;12.30;7.65;;;9.50;58.40;;;;;;5093087;28;20027;-72
2022/04/29 04:56:38;;;;;;;16.75;7.60;;;9.60;58.40;;;;;;5094436;28;20055;-71
2022/04/29 04:59:04;;;;;;;9.05;6.55;;;9.60;58.50;;;;;;5094083;28;20067;-71
2022/04/29 05:01:30;;;;;;;10.38;6.28;;;9.60;58.50;;;;;;5092667;28;20063;-71
2022/04/29 05:03:56;;;;;;;12.20;6.72;;;9.70;58.60;;;;;;5094160;28;20533;-71
2022/04/29 05:06:21;;;;;;;15.35;7.10;;;9.70;58.60;;;;;;5094167;28;20031;-71
2022/04/29 05:08:47;;;;;;;9.18;5.93;;;9.80;58.80;;;;;;5094137;28;20053;-72
2022/04/29 05:11:13;;;;;;;9.23;6.43;;;9.80;58.80;;;;;;5092991;28;20389;-72
2022/04/29 05:13:38;;;;;;;9.55;6.10;;;9.90;58.70;;;;;;5092741;28;20111;-71
2022/04/29 05:16:05;;;;;;;12.77;6.50;;;10.00;58.60;;;;;;5093926;28;20066;-71
2022/04/29 05:18:30;;;;;;;8.68;5.78;;;10.00;58.40;;;;;;5094136;28;20453;-71
2022/04/29 05:20:56;;;;;;;9.70;6.40;;;10.10;58.30;;;;;;5093735;28;20048;-72
2022/04/29 05:23:22;;;;;;;11.70;6.72;;;10.20;58.20;;;;;;5093815;28;20080;-71
2022/04/29 05:25:47;;;;;;;9.00;6.13;;;10.20;58.00;;;;;;5093703;28;20027;-72
2022/04/29 05:28:13;;;;;;;11.10;6.68;;;10.30;57.70;;;;;;5074660;28;20525;-72
2022/04/29 05:30:39;;;;;;;10.63;6.70;;;10.40;57.60;;;;;;5073370;28;20024;-71
2022/04/29 05:33:06;;;;;;;14.70;8.30;;;10.50;57.50;;;;;;5072133;28;20021;-72
2022/04/29 05:35:34;;;;;;;11.00;6.55;;;10.60;57.50;;;;;;5071926;28;20496;-71
2022/04/29 05:38:00;;;;;;;9.10;6.30;;;10.70;57.40;;;;;;5073292;28;20048;-72
2022/04/29 05:43:11;;;;;;;18.15;7.93;;;10.90;57.30;;;;;;5073536;28;20401;-71
2022/04/29 05:45:37;;;;;;;9.85;6.25;;;11.00;57.20;;;;;;5073072;28;20029;-71
2022/04/29 05:48:03;;;;;;;10.30;7.32;;;11.10;57.00;;;;;;5085369;28;20020;-72
2022/04/29 05:50:29;;;;;;;13.07;6.90;;;11.10;56.80;;;;;;5093331;28;20567;-71
2022/04/29 05:52:55;;;;;;;14.27;8.23;;;11.20;56.70;;;;;;5093241;28;20016;-72
2022/04/29 05:55:20;;;;;;;14.05;8.77;;;11.30;56.60;;;;;;5092455;28;20016;-72
2022/04/29 05:57:46;;;;;;;24.13;12.63;;;11.40;56.60;;;;;;5093302;28;20020;-72
2022/04/29 06:00:12;;;;;;;27.08;14.00;;;11.50;56.60;;;;;;5092915;28;20493;-72
2022/04/29 06:02:39;;;;;;;31.88;15.15;;;11.60;56.60;;;;;;5093316;28;20440;-72
2022/04/29 06:05:05;;;;;;;28.95;15.63;;;11.60;56.50;;;;;;5092027;28;20043;-71
2022/04/29 06:07:31;;;;;;;25.95;12.88;;;11.70;56.60;;;;;;5093095;28;20103;-72
2022/04/29 06:09:57;;;;;;;22.83;12.20;;;11.80;56.40;;;;;;5076947;28;20108;-71
2022/04/29 06:12:22;;;;;;;20.05;11.40;;;11.90;56.40;;;;;;5093172;28;20501;-72
2022/04/29 06:14:48;;;;;;;24.63;11.98;;;12.00;56.20;;;;;;5093101;28;20110;-74
2022/04/29 06:17:14;;;;;;;18.75;11.05;;;12.10;56.10;;;;;;5091740;28;20028;-69
2022/04/29 06:19:40;;;;;;;31.00;15.18;;;12.20;56.00;;;;;;5092957;28;20028;-69
2022/04/29 06:22:06;;;;;;;38.67;18.83;;;12.30;55.80;;;;;;5093002;28;20095;-69
2022/04/29 06:24:35;;;;;;;74.95;31.55;;;12.30;55.70;;;;;;5092971;28;20107;-69
2022/04/29 06:27:02;;;;;;;61.08;34.83;;;12.40;55.60;;;;;;5092864;28;20071;-69
2022/04/29 06:29:28;;;;;;;64.00;34.45;;;12.60;55.50;;;;;;5091664;28;20024;-69
2022/04/29 06:31:54;;;;;;;47.95;25.95;;;12.60;55.20;;;;;;5092959;28;20036;-69
2022/04/29 06:34:19;;;;;;;43.40;21.50;;;12.70;55.10;;;;;;5081369;28;20052;-72
2022/04/29 06:36:45;;;;;;;35.53;17.73;;;12.80;54.90;;;;;;5072719;28;20029;-69
2022/04/29 06:39:11;;;;;;;55.08;26.40;;;12.90;54.80;;;;;;5072462;28;20488;-70
2022/04/29 06:41:37;;;;;;;56.17;26.00;;;13.00;54.80;;;;;;5072655;28;20366;-70
2022/04/29 06:44:03;;;;;;;45.15;23.55;;;13.00;54.70;;;;;;5072674;28;20056;-70
2022/04/29 06:46:29;;;;;;;48.47;22.65;;;13.00;54.70;;;;;;5072721;28;20508;-69
2022/04/29 06:48:56;;;;;;;44.40;22.25;;;13.10;54.60;;;;;;5071417;28;20031;-69
2022/04/29 06:51:25;;;;;;;36.45;19.33;;;13.20;54.60;;;;;;5072724;28;20017;-70
2022/04/29 06:53:51;;;;;;;34.47;20.52;;;13.30;54.70;;;;;;5072585;28;20017;-69
2022/04/29 06:56:16;;;;;;;49.03;21.30;;;13.40;54.70;;;;;;5077616;28;20032;-70
2022/04/29 06:58:42;;;;;;;36.97;20.25;;;13.50;54.20;;;;;;5091139;28;20478;-71
2022/04/29 07:01:08;;;;;;;40.40;20.55;;;13.60;53.90;;;;;;5085354;28;20128;-70
2022/04/29 07:03:34;;;;;;;40.58;20.80;;;13.70;53.70;;;;;;5092037;28;20043;-72
2022/04/29 07:06:01;;;;;;;47.25;19.27;;;13.80;53.70;;;;;;5088295;28;20477;-69
2022/04/29 07:08:28;;;;;;;45.85;17.50;;;13.90;53.60;;;;;;5095912;28;20496;-69
2022/04/29 07:10:55;;;;;;;40.00;18.30;;;14.00;53.50;;;;;;5094753;28;20024;-70
2022/04/29 07:13:21;;;;;;;33.40;18.10;;;14.00;53.30;;;;;;5096329;28;20054;-71
2022/04/29 07:15:48;;;;;;;34.67;17.60;;;14.10;53.10;;;;;;5096370;28;20028;-71
2022/04/29 07:18:15;;;;;;;38.83;17.05;;;14.20;53.00;;;;;;5096316;28;20050;-71
2022/04/29 07:20:41;;;;;;;37.65;17.77;;;14.20;52.90;;;;;;5096181;28;20105;-71
2022/04/29 07:23:07;;;;;;;50.95;19.98;;;14.30;52.70;;;;;;5096083;28;20020;-71
2022/04/29 07:25:33;;;;;;;51.72;21.05;;;14.40;52.40;;;;;;5096169;28;20016;-71
2022/04/29 07:27:59;;;;;;;46.17;19.27;;;14.50;52.10;;;;;;5082679;28;20082;-71
2022/04/29 07:30:26;;;;;;;49.78;19.20;;;14.60;51.90;;;;;;5075806;28;20012;-71
2022/04/29 07:32:52;;;;;;;42.60;18.90;;;14.70;51.70;;;;;;5074395;28;20043;-71
2022/04/29 07:43:31;;;;;;;35.05;15.52;;;15.00;50.40;;;;;;5095007;28;20390;-71
2022/04/29 07:45:59;;;;;;;37.50;16.17;;;15.10;50.40;;;;;;5094010;28;20025;-71
2022/04/29 07:48:25;;;;;;;35.97;17.35;;;15.20;50.40;;;;;;5095777;28;20020;-71
2022/04/29 07:50:52;;;;;;;39.78;17.02;;;15.20;50.20;;;;;;5094461;28;20393;-71
2022/04/29 07:53:18;;;;;;;40.35;17.75;;;15.30;50.10;;;;;;5080831;28;20113;-71
2022/04/29 07:55:44;;;;;;;36.38;16.45;;;15.40;50.20;;;;;;5075390;28;20101;-71
2022/04/29 07:58:11;;;;;;;33.53;15.10;;;15.50;50.30;;;;;;5082659;28;20085;-71
2022/04/29 08:00:39;;;;;;;38.20;16.08;;;15.60;50.40;;;;;;5095188;28;20040;-71
2022/04/29 08:03:06;;;;;;;36.80;15.98;;;15.70;50.20;;;;;;5093308;28;20029;-71
2022/04/29 08:05:32;;;;;;;31.48;15.68;;;15.80;50.00;;;;;;5084238;28;20028;-71
2022/04/29 08:08:01;;;;;;;37.08;16.90;;;15.90;50.30;;;;;;5093019;28;20024;-71
2022/04/29 08:10:30;;;;;;;35.65;16.73;;;16.00;49.80;;;;;;5094615;28;20013;-71
2022/04/29 08:12:59;;;;;;;34.75;16.67;;;16.10;49.00;;;;;;5091118;28;20115;-71
2022/04/29 08:15:29;;;;;;;43.22;18.25;;;16.10;48.80;;;;;;5095168;28;20419;-71
2022/04/29 08:17:55;;;;;;;51.45;17.48;;;16.20;48.50;;;;;;5086326;28;20488;-71
2022/04/29 08:20:21;;;;;;;37.38;15.10;;;16.30;48.30;;;;;;5087299;28;20032;-71
2022/04/29 08:22:48;;;;;;;29.70;14.75;;;16.40;48.40;;;;;;5095189;28;20028;-71
2022/04/29 08:25:20;;;;;;;28.48;14.80;;;16.60;48.30;;;;;;5093831;28;20024;-71
2022/04/29 08:27:47;;;;;;;26.20;13.98;;;16.70;48.00;;;;;;5095147;28;20031;-71
2022/04/29 08:30:14;;;;;;;22.70;12.05;;;16.80;48.10;;;;;;5095060;28;20531;-71
2022/04/29 08:32:41;;;;;;;34.42;14.20;;;16.90;48.10;;;;;;5093651;28;20100;-71
2022/04/29 08:35:11;;;;;;;21.60;11.57;;;17.10;47.90;;;;;;5093594;28;20035;-71
2022/04/29 08:37:42;;;;;;;22.45;12.13;;;17.20;47.90;;;;;;5094957;28;20020;-72
2022/04/29 08:40:09;;;;;;;24.13;11.90;;;17.30;47.60;;;;;;5094863;28;20508;-71
2022/04/29 08:42:37;;;;;;;18.38;10.07;;;17.50;47.60;;;;;;5090130;28;20397;-71
2022/04/29 08:45:12;;;;;;;19.15;10.55;;;17.60;47.70;;;;;;5074410;28;20119;-72
2022/04/29 08:47:43;;;;;;;19.25;10.55;;;17.70;47.50;;;;;;5074327;28;20385;-72
2022/04/29 08:50:14;;;;;;;16.27;10.18;;;17.70;47.20;;;;;;5074175;28;20028;-72
2022/04/29 08:52:40;;;;;;;17.95;9.25;;;17.80;46.80;;;;;;5074281;28;20047;-72
2022/04/29 09:00:38;;;;;;;21.27;9.60;;;18.00;46.50;;;;;;5074067;28;20138;-71
2022/04/29 09:03:06;;;;;;;16.98;8.40;;;18.00;46.10;;;;;;5074153;28;20024;-72
2022/04/29 09:05:34;;;;;;;17.85;8.40;;;18.10;46.20;;;;;;5073949;28;20362;-72
2022/04/29 09:08:02;;;;;;;14.38;8.75;;;18.10;45.60;;;;;;5072865;28;20048;-70
2022/04/29 09:10:35;;;;;;;13.88;8.00;;;18.20;45.10;;;;;;5073884;28;20434;-70
2022/04/29 09:13:16;;;;;;;16.80;8.40;;;18.20;45.10;;;;;;5073906;28;20021;-70
2022/04/29 09:15:51;;;;;;;11.43;7.05;;;18.30;43.70;;;;;;5073809;28;20032;-70
2022/04/29 09:18:39;;;;;;;12.07;7.03;;;18.40;43.30;;;;;;5073687;28;20024;-70
2022/04/29 09:21:07;;;;;;;13.65;6.95;;;18.40;42.90;;;;;;5073692;28;20094;-70
2022/04/29 09:23:57;;;;;;;11.07;7.35;;;18.50;42.90;;;;;;5073649;28;20024;-71
2022/04/29 09:26:35;;;;;;;11.60;7.30;;;18.60;42.20;;;;;;5061061;28;20037;-72
2022/04/29 09:29:12;;;;;;;13.63;7.00;;;18.60;42.10;;;;;;5072594;28;20021;-70
2022/04/29 09:31:54;;;;;;;11.52;6.20;;;18.70;41.90;;;;;;5073498;28;20024;-70
2022/04/29 09:34:21;;;;;;;16.42;7.25;;;18.80;41.60;;;;;;5073620;28;20025;-71
2022/04/29 09:36:47;;;;;;;11.60;6.25;;;18.90;40.20;;;;;;5073502;28;20025;-71
2022/04/29 09:39:30;;;;;;;15.90;6.95;;;18.90;39.90;;;;;;5073421;28;20103;-71
2022/04/29 09:41:58;;;;;;;10.60;6.18;;;18.90;39.70;;;;;;5072963;28;20032;-71
2022/04/29 09:44:29;;;;;;;10.48;6.70;;;19.00;40.40;;;;;;5071614;28;20056;-71
2022/04/29 09:46:55;;;;;;;11.18;6.50;;;19.10;38.40;;;;;;5073167;28;20103;-71
2022/04/29 09:49:26;;;;;;;8.88;5.82;;;19.20;39.20;;;;;;5072794;28;20441;-72
2022/04/29 09:51:53;;;;;;;16.30;6.85;;;19.20;39.40;;;;;;5073218;28;20029;-72
2022/04/29 09:54:25;;;;;;;9.13;5.65;;;19.30;39.20;;;;;;5073321;28;20028;-71
2022/04/29 09:57:08;;;;;;;14.80;6.20;;;19.30;39.70;;;;;;5073091;28;20025;-71
2022/04/29 09:59:42;;;;;;;10.63;5.97;;;19.40;39.20;;;;;;5073092;28;20171;-71
2022/04/29 10:02:10;;;;;;;10.60;5.70;;;19.40;37.90;;;;;;5073095;28;20028;-71
2022/04/29 10:04:44;;;;;;;11.68;6.38;;;19.50;38.00;;;;;;5072908;28;20432;-71
2022/04/29 10:07:14;;;;;;;;;;;19.60;38.00;;;;;;5072071;28;20440;-71
2022/04/29 10:09:44;;;;;;;10.18;5.45;;;19.70;39.70;;;;;;5072952;28;19953;-71
2022/04/29 10:12:15;;;;;;;10.30;5.13;;;19.70;35.90;;;;;;5073219;28;20017;-71
2022/04/29 10:14:43;;;;;;;9.23;5.65;;;19.70;34.80;;;;;;5073645;28;20111;-71
2022/04/29 10:22:56;;;;;;;8.60;5.03;;;19.90;34.00;;;;;;5090481;28;20039;-71
2022/04/29 10:25:25;;;;;;;8.20;4.97;;;19.90;34.90;;;;;;5093550;28;20032;-71
2022/04/29 10:27:52;;;;;;;8.07;5.03;;;20.00;33.80;;;;;;5093457;28;20390;-71
2022/04/29 10:30:28;;;;;;;7.20;4.43;;;20.00;34.30;;;;;;5092948;28;20384;-71
2022/04/29 10:33:08;;;;;;;7.60;4.88;;;20.10;33.50;;;;;;5092841;28;20024;-70
2022/04/29 10:35:43;;;;;;;7.45;4.70;;;20.10;33.30;;;;;;5092903;28;20024;-70
2022/04/29 10:38:27;;;;;;;7.22;4.13;;;20.20;33.50;;;;;;5092682;28;20028;-70
2022/04/29 10:41:12;;;;;;;8.00;4.77;;;20.30;34.10;;;;;;5080240;28;20028;-70
2022/04/29 10:43:40;;;;;;;9.43;4.70;;;20.30;32.80;;;;;;5076608;28;20024;-70
2022/04/29 10:46:06;;;;;;;6.95;4.72;;;20.40;32.50;;;;;;5076674;28;20036;-70
2022/04/29 10:48:39;;;;;;;8.15;4.68;;;20.50;32.10;;;;;;5075123;28;20047;-70
2022/04/29 10:51:27;;;;;;;6.53;4.57;;;20.60;31.70;;;;;;5076504;28;20032;-70
2022/04/29 10:53:56;;;;;;;7.55;5.07;;;20.60;31.80;;;;;;5076455;28;20017;-70
2022/04/29 10:56:31;;;;;;;6.50;4.95;;;20.80;31.10;;;;;;5076415;28;20103;-70
2022/04/29 10:59:09;;;;;;;9.98;5.20;;;20.80;31.10;;;;;;5074917;28;20545;-70
2022/04/29 11:01:36;;;;;;;8.05;4.78;;;20.90;30.00;;;;;;5076381;28;20040;-70
2022/04/29 11:04:27;;;;;;;6.88;4.90;;;21.00;30.10;;;;;;5076138;28;20020;-70
2022/04/29 11:06:53;;;;;;;7.65;4.63;;;21.00;30.10;;;;;;5076009;28;20029;-70
2022/04/29 11:09:30;;;;;;;7.95;4.22;;;21.10;30.80;;;;;;5076072;28;20421;-70
2022/04/29 11:11:57;;;;;;;7.85;4.05;;;21.30;30.40;;;;;;5076340;28;20031;-70
2022/04/29 11:14:23;;;;;;;8.10;5.57;;;21.30;31.00;;;;;;5089871;28;20550;-70
2022/04/29 11:16:52;;;;;;;6.40;5.03;;;21.40;29.10;;;;;;5095065;28;20043;-70
2022/04/29 11:19:21;;;;;;;6.28;4.80;;;21.50;29.60;;;;;;5096290;28;20020;-70
2022/04/29 11:24:42;;;;;;;5.63;3.97;;;21.60;29.80;;;;;;5096353;28;20039;-70
2022/04/29 11:27:09;;;;;;;10.10;4.75;;;21.60;30.40;;;;;;5095780;28;20020;-70
2022/04/29 11:29:45;;;;;;;6.32;4.38;;;21.70;29.90;;;;;;5095962;28;20035;-70
2022/04/29 11:32:12;;;;;;;6.10;4.18;;;21.70;29.70;;;;;;5094424;28;20327;-70
2022/04/29 11:35:00;;;;;;;9.40;4.32;;;21.80;29.90;;;;;;5095887;28;20026;-70
2022/04/29 11:37:28;;;;;;;7.78;4.30;;;21.80;29.30;;;;;;5075603;28;20406;-70
2022/04/29 11:40:02;;;;;;;7.10;4.20;;;21.90;29.30;;;;;;5075398;28;20028;-70
2022/04/29 11:42:28;;;;;;;6.40;4.15;;;21.90;28.70;;;;;;5075467;28;20048;-70
2022/04/29 11:44:55;;;;;;;7.03;3.40;;;21.90;29.00;;;;;;5075437;28;20052;-71
2022/04/29 11:47:25;;;;;;;9.55;4.57;;;22.00;29.30;;;;;;5075256;28;20032;-70
2022/04/29 11:49:52;;;;;;;6.15;4.28;;;22.00;28.60;;;;;;5075317;28;20028;-71
2022/04/29 11:52:25;;;;;;;10.52;5.13;;;22.10;29.20;;;;;;5074045;28;20045;-71
2022/04/29 11:55:00;;;;;;;9.77;5.30;;;22.10;28.80;;;;;;5075124;28;20044;-70
2022/04/29 11:57:28;;;;;;;6.75;5.05;;;22.20;29.00;;;;;;5075233;28;20039;-71
2022/04/29 11:59:54;;;;;;;6.30;4.53;;;22.20;28.50;;;;;;5074994;28;20048;-70
2022/04/29 12:02:22;;;;;;;6.00;4.78;;;22.30;28.20;;;;;;5087902;28;20028;-70
2022/04/29 12:04:58;;;;;;;6.82;4.63;;;22.30;28.30;;;;;;5095141;28;20024;-70
2022/04/29 12:07:26;;;;;;;19.08;3.90;;;22.30;28.30;;;;;;5093674;28;20114;-70
2022/04/29 12:09:53;;;;;;;4.70;4.20;;;22.40;28.90;;;;;;5095338;28;20046;-71
2022/04/29 12:12:30;;;;;;;9.18;4.40;;;22.40;28.60;;;;;;5095350;28;20108;-70
2022/04/29 12:15:00;;;;;;;6.28;4.40;;;22.50;28.10;;;;;;5095262;28;20020;-70
2022/04/29 12:17:37;;;;;;;7.97;4.50;;;22.50;28.30;;;;;;5095059;28;20045;-70
2022/04/29 12:20:05;;;;;;;5.78;4.28;;;22.50;28.20;;;;;;5095191;28;20030;-70
2022/04/29 12:22:41;;;;;;;6.70;4.38;;;22.60;28.40;;;;;;5095133;28;20020;-75
2022/04/29 12:25:31;;;;;;;14.25;5.60;;;22.70;28.20;;;;;;5095034;28;20465;-74
2022/04/29 12:28:21;;;;;;;8.25;5.22;;;22.70;28.20;;;;;;5079050;28;20103;-74
2022/04/29 12:37:09;;;;;;;5.50;4.25;;;23.00;28.10;;;;;;5092085;28;20059;-74
2022/04/29 12:39:40;;;;;;;5.40;3.88;;;23.10;28.30;;;;;;5073997;28;20031;-74
2022/04/29 12:42:09;;;;;;;5.22;3.80;;;23.20;27.90;;;;;;5074646;28;20436;-75
2022/04/29 12:45:04;;;;;;;7.78;5.10;;;23.20;27.40;;;;;;5073074;28;20024;-73
2022/04/29 12:47:49;;;;;;;9.05;4.65;;;23.30;27.20;;;;;;5072963;28;20170;-73
2022/04/29 12:50:24;;;;;;;6.55;3.90;;;23.30;27.60;;;;;;5074278;28;20494;-73
2022/04/29 12:53:01;;;;;;;6.35;4.38;;;23.40;27.40;;;;;;5074479;28;20040;-74
2022/04/29 12:55:30;;;;;;;10.65;4.72;;;23.40;27.40;;;;;;5074304;28;20024;-73
2022/04/29 12:58:08;;;;;;;8.30;5.00;;;23.50;27.10;;;;;;5074047;28;20497;-73
2022/04/29 13:00:38;;;;;;;9.60;5.32;;;23.50;26.80;;;;;;5073868;28;20119;-74
2022/04/29 13:03:10;;;;;;;6.85;5.10;;;23.50;26.70;;;;;;5073968;28;20044;-74
2022/04/29 13:05:37;;;;;;;6.07;4.68;;;23.50;26.60;;;;;;5072757;28;20108;-73
2022/04/29 13:08:04;;;;;;;8.32;5.22;;;23.60;26.70;;;;;;5072899;28;20044;-74
2022/04/29 13:10:44;;;;;;;7.78;4.20;;;23.60;26.80;;;;;;5074199;28;20065;-74
2022/04/29 13:13:11;;;;;;;6.03;3.40;;;23.70;26.60;;;;;;5074004;28;20017;-75
2022/04/29 13:15:41;;;;;;;7.90;4.35;;;23.80;27.00;;;;;;5073841;28;20020;-74
2022/04/29 13:18:07;;;;;;;8.93;3.75;;;23.90;26.20;;;;;;5072878;28;20032;-74
2022/04/29 13:20:33;;;;;;;4.55;3.53;;;24.00;25.80;;;;;;5073746;28;20364;-75
2022/04/29 13:22:59;;;;;;;6.05;4.07;;;24.10;25.80;;;;;;5073738;28;20047;-75
2022/04/29 13:25:25;;;;;;;6.18;3.50;;;24.20;25.80;;;;;;5073869;28;20044;-75
2022/04/29 13:27:51;;;;;;;8.98;3.28;;;24.30;26.30;;;;;;5073549;28;20078;-74